sensor_id;sensor_type;location;lat;lon;timestamp;P1;durP1;ratioP1;P2;durP2;ratioP2
12519;SDS011;6325;49.540;8.364;2024-01-11T00:01:47;17.20;;;13.55;;
12519;SDS011;6325;49.540;8.364;2024-01-11T00:04:15;18.92;;;14.15;;
12519;SDS011;6325;49.540;8.364;2024-01-11T00:06:42;18.17;;;13.75;;
12519;SDS011;6325;49.540;8.364;2024-01-11T00:09:09;19.40;;;14.13;;
12519;SDS011;6325;49.540;8.364;2024-01-11T00:11:36;18.50;;;13.65;;
12519;SDS011;6325;49.540;8.364;2024-01-11T00:14:03;20.55;;;15.07;;
12519;SDS011;6325;49.540;8.364;2024-01-11T00:16:30;18.63;;;14.13;;
12519;SDS011;6325;49.540;8.364;2024-01-11T00:18:56;17.55;;;13.48;;
12519;SDS011;6325;49.540;8.364;2024-01-11T00:21:24;20.15;;;14.75;;
12519;SDS011;6325;49.540;8.364;2024-01-11T00:23:51;18.30;;;14.30;;
12519;SDS011;6325;49.540;8.364;2024-01-11T00:26:18;18.02;;;13.70;;
12519;SDS011;6325;49.540;8.364;2024-01-11T00:28:45;19.08;;;14.38;;
12519;SDS011;6325;49.540;8.364;2024-01-11T00:31:12;18.17;;;14.10;;
12519;SDS011;6325;49.540;8.364;2024-01-11T00:33:39;19.30;;;14.45;;
12519;SDS011;6325;49.540;8.364;2024-01-11T00:36:06;18.20;;;14.20;;
12519;SDS011;6325;49.540;8.364;2024-01-11T00:38:34;18.15;;;13.48;;
12519;SDS011;6325;49.540;8.364;2024-01-11T00:41:01;18.97;;;14.27;;
12519;SDS011;6325;49.540;8.364;2024-01-11T00:43:28;17.70;;;13.55;;
12519;SDS011;6325;49.540;8.364;2024-01-11T00:45:54;20.05;;;15.07;;
12519;SDS011;6325;49.540;8.364;2024-01-11T00:48:21;19.55;;;14.65;;
12519;SDS011;6325;49.540;8.364;2024-01-11T00:50:48;20.73;;;14.93;;
12519;SDS011;6325;49.540;8.364;2024-01-11T00:53:15;20.23;;;14.82;;
12519;SDS011;6325;49.540;8.364;2024-01-11T00:55:43;18.77;;;14.80;;
12519;SDS011;6325;49.540;8.364;2024-01-11T00:58:10;18.33;;;14.10;;
12519;SDS011;6325;49.540;8.364;2024-01-11T01:00:36;21.10;;;15.68;;
12519;SDS011;6325;49.540;8.364;2024-01-11T01:03:03;19.95;;;15.45;;
12519;SDS011;6325;49.540;8.364;2024-01-11T01:05:30;19.58;;;15.07;;
12519;SDS011;6325;49.540;8.364;2024-01-11T01:07:57;18.77;;;13.95;;
12519;SDS011;6325;49.540;8.364;2024-01-11T01:10:24;20.67;;;15.00;;
12519;SDS011;6325;49.540;8.364;2024-01-11T01:12:52;20.23;;;14.32;;
12519;SDS011;6325;49.540;8.364;2024-01-11T01:15:18;20.90;;;15.47;;
12519;SDS011;6325;49.540;8.364;2024-01-11T01:17:45;20.45;;;14.63;;
12519;SDS011;6325;49.540;8.364;2024-01-11T01:20:12;19.95;;;15.00;;
12519;SDS011;6325;49.540;8.364;2024-01-11T01:22:39;19.60;;;15.18;;
12519;SDS011;6325;49.540;8.364;2024-01-11T01:25:06;19.70;;;14.65;;
12519;SDS011;6325;49.540;8.364;2024-01-11T01:27:33;20.70;;;14.98;;
12519;SDS011;6325;49.540;8.364;2024-01-11T01:30:02;20.42;;;15.07;;
12519;SDS011;6325;49.540;8.364;2024-01-11T01:32:29;21.10;;;15.68;;
12519;SDS011;6325;49.540;8.364;2024-01-11T01:34:56;19.83;;;14.98;;
12519;SDS011;6325;49.540;8.364;2024-01-11T01:37:23;22.87;;;16.37;;
12519;SDS011;6325;49.540;8.364;2024-01-11T01:39:49;21.25;;;15.20;;
12519;SDS011;6325;49.540;8.364;2024-01-11T01:42:16;18.97;;;14.63;;
12519;SDS011;6325;49.540;8.364;2024-01-11T01:44:43;19.02;;;14.45;;
12519;SDS011;6325;49.540;8.364;2024-01-11T01:47:11;19.73;;;14.73;;
12519;SDS011;6325;49.540;8.364;2024-01-11T01:49:38;21.08;;;16.30;;
12519;SDS011;6325;49.540;8.364;2024-01-11T01:52:05;20.92;;;15.55;;
12519;SDS011;6325;49.540;8.364;2024-01-11T01:54:33;22.48;;;16.00;;
12519;SDS011;6325;49.540;8.364;2024-01-11T01:57:00;19.60;;;15.25;;
12519;SDS011;6325;49.540;8.364;2024-01-11T01:59:28;19.88;;;15.68;;
12519;SDS011;6325;49.540;8.364;2024-01-11T02:01:58;20.55;;;15.85;;
12519;SDS011;6325;49.540;8.364;2024-01-11T02:04:26;21.75;;;16.15;;
12519;SDS011;6325;49.540;8.364;2024-01-11T02:06:53;22.25;;;16.00;;
12519;SDS011;6325;49.540;8.364;2024-01-11T02:09:20;19.08;;;15.00;;
12519;SDS011;6325;49.540;8.364;2024-01-11T02:11:50;23.70;;;17.20;;
12519;SDS011;6325;49.540;8.364;2024-01-11T02:14:18;22.60;;;16.17;;
12519;SDS011;6325;49.540;8.364;2024-01-11T02:16:45;22.83;;;16.50;;
12519;SDS011;6325;49.540;8.364;2024-01-11T02:19:13;23.37;;;16.90;;
12519;SDS011;6325;49.540;8.364;2024-01-11T02:21:41;23.70;;;16.73;;
12519;SDS011;6325;49.540;8.364;2024-01-11T02:24:10;22.25;;;16.58;;
12519;SDS011;6325;49.540;8.364;2024-01-11T02:26:37;22.30;;;16.98;;
12519;SDS011;6325;49.540;8.364;2024-01-11T02:29:24;23.98;;;17.92;;
12519;SDS011;6325;49.540;8.364;2024-01-11T02:31:51;22.38;;;16.17;;
12519;SDS011;6325;49.540;8.364;2024-01-11T02:34:18;21.15;;;15.98;;
12519;SDS011;6325;49.540;8.364;2024-01-11T02:36:45;21.38;;;15.93;;
12519;SDS011;6325;49.540;8.364;2024-01-11T02:39:14;22.63;;;16.17;;
12519;SDS011;6325;49.540;8.364;2024-01-11T02:41:43;22.52;;;16.63;;
12519;SDS011;6325;49.540;8.364;2024-01-11T02:44:10;23.70;;;16.63;;
12519;SDS011;6325;49.540;8.364;2024-01-11T02:46:37;21.60;;;15.88;;
12519;SDS011;6325;49.540;8.364;2024-01-11T02:49:04;22.52;;;17.08;;
12519;SDS011;6325;49.540;8.364;2024-01-11T02:51:31;21.13;;;15.75;;
12519;SDS011;6325;49.540;8.364;2024-01-11T02:53:57;21.27;;;15.32;;
12519;SDS011;6325;49.540;8.364;2024-01-11T02:56:25;21.00;;;15.50;;
12519;SDS011;6325;49.540;8.364;2024-01-11T02:58:52;20.50;;;15.38;;
12519;SDS011;6325;49.540;8.364;2024-01-11T03:01:19;20.65;;;15.43;;
12519;SDS011;6325;49.540;8.364;2024-01-11T03:03:46;21.80;;;16.35;;
12519;SDS011;6325;49.540;8.364;2024-01-11T03:06:12;22.25;;;16.60;;
12519;SDS011;6325;49.540;8.364;2024-01-11T03:08:39;19.67;;;15.50;;
12519;SDS011;6325;49.540;8.364;2024-01-11T03:11:06;20.10;;;15.27;;
12519;SDS011;6325;49.540;8.364;2024-01-11T03:13:34;21.05;;;15.98;;
12519;SDS011;6325;49.540;8.364;2024-01-11T03:16:01;20.30;;;15.23;;
12519;SDS011;6325;49.540;8.364;2024-01-11T03:18:28;20.48;;;15.25;;
12519;SDS011;6325;49.540;8.364;2024-01-11T03:20:56;20.73;;;15.32;;
12519;SDS011;6325;49.540;8.364;2024-01-11T03:23:23;21.73;;;16.00;;
12519;SDS011;6325;49.540;8.364;2024-01-11T03:25:49;23.98;;;16.75;;
12519;SDS011;6325;49.540;8.364;2024-01-11T03:28:16;20.42;;;15.65;;
12519;SDS011;6325;49.540;8.364;2024-01-11T03:30:44;21.05;;;15.95;;
12519;SDS011;6325;49.540;8.364;2024-01-11T03:33:11;18.90;;;14.82;;
12519;SDS011;6325;49.540;8.364;2024-01-11T03:35:38;20.55;;;15.00;;
12519;SDS011;6325;49.540;8.364;2024-01-11T03:38:05;22.15;;;16.27;;
12519;SDS011;6325;49.540;8.364;2024-01-11T03:40:32;22.25;;;16.23;;
12519;SDS011;6325;49.540;8.364;2024-01-11T03:42:58;22.83;;;16.97;;
12519;SDS011;6325;49.540;8.364;2024-01-11T03:45:26;20.48;;;15.27;;
12519;SDS011;6325;49.540;8.364;2024-01-11T03:47:54;20.13;;;15.48;;
12519;SDS011;6325;49.540;8.364;2024-01-11T03:50:20;20.27;;;15.18;;
12519;SDS011;6325;49.540;8.364;2024-01-11T03:52:47;21.55;;;15.98;;
12519;SDS011;6325;49.540;8.364;2024-01-11T03:55:14;22.63;;;16.35;;
12519;SDS011;6325;49.540;8.364;2024-01-11T03:57:41;21.80;;;16.42;;
12519;SDS011;6325;49.540;8.364;2024-01-11T04:00:09;23.05;;;16.38;;
12519;SDS011;6325;49.540;8.364;2024-01-11T04:02:36;21.57;;;15.73;;
12519;SDS011;6325;49.540;8.364;2024-01-11T04:05:05;21.55;;;15.82;;
12519;SDS011;6325;49.540;8.364;2024-01-11T04:07:32;21.65;;;16.00;;
12519;SDS011;6325;49.540;8.364;2024-01-11T04:09:59;20.25;;;15.20;;
12519;SDS011;6325;49.540;8.364;2024-01-11T04:12:26;21.63;;;15.65;;
12519;SDS011;6325;49.540;8.364;2024-01-11T04:14:52;21.48;;;15.75;;
12519;SDS011;6325;49.540;8.364;2024-01-11T04:17:19;21.55;;;15.82;;
12519;SDS011;6325;49.540;8.364;2024-01-11T04:19:46;20.92;;;15.02;;
12519;SDS011;6325;49.540;8.364;2024-01-11T04:22:14;21.35;;;15.68;;
12519;SDS011;6325;49.540;8.364;2024-01-11T04:24:41;22.88;;;16.50;;
12519;SDS011;6325;49.540;8.364;2024-01-11T04:27:08;22.08;;;16.17;;
12519;SDS011;6325;49.540;8.364;2024-01-11T04:29:35;20.92;;;15.75;;
12519;SDS011;6325;49.540;8.364;2024-01-11T04:32:02;20.52;;;15.75;;
12519;SDS011;6325;49.540;8.364;2024-01-11T04:34:29;20.40;;;15.60;;
12519;SDS011;6325;49.540;8.364;2024-01-11T04:36:56;22.42;;;16.08;;
12519;SDS011;6325;49.540;8.364;2024-01-11T04:39:24;21.55;;;15.98;;
12519;SDS011;6325;49.540;8.364;2024-01-11T04:41:51;22.02;;;15.80;;
12519;SDS011;6325;49.540;8.364;2024-01-11T04:44:17;23.35;;;16.90;;
12519;SDS011;6325;49.540;8.364;2024-01-11T04:46:44;20.95;;;15.73;;
12519;SDS011;6325;49.540;8.364;2024-01-11T04:49:11;21.52;;;16.10;;
12519;SDS011;6325;49.540;8.364;2024-01-11T04:51:38;21.90;;;16.20;;
12519;SDS011;6325;49.540;8.364;2024-01-11T04:54:05;20.65;;;15.82;;
12519;SDS011;6325;49.540;8.364;2024-01-11T04:56:33;20.27;;;15.32;;
12519;SDS011;6325;49.540;8.364;2024-01-11T04:59:00;22.25;;;16.42;;
12519;SDS011;6325;49.540;8.364;2024-01-11T05:01:26;20.60;;;15.20;;
12519;SDS011;6325;49.540;8.364;2024-01-11T05:03:53;19.98;;;15.43;;
12519;SDS011;6325;49.540;8.364;2024-01-11T05:06:20;22.00;;;15.82;;
12519;SDS011;6325;49.540;8.364;2024-01-11T05:08:48;21.80;;;15.97;;
12519;SDS011;6325;49.540;8.364;2024-01-11T05:11:17;21.57;;;15.93;;
12519;SDS011;6325;49.540;8.364;2024-01-11T05:13:45;24.35;;;17.02;;
12519;SDS011;6325;49.540;8.364;2024-01-11T05:16:17;20.70;;;16.02;;
12519;SDS011;6325;49.540;8.364;2024-01-11T05:18:48;22.85;;;15.93;;
12519;SDS011;6325;49.540;8.364;2024-01-11T05:21:15;20.30;;;15.35;;
12519;SDS011;6325;49.540;8.364;2024-01-11T05:23:45;20.67;;;15.90;;
12519;SDS011;6325;49.540;8.364;2024-01-11T05:26:14;20.73;;;15.40;;
12519;SDS011;6325;49.540;8.364;2024-01-11T05:28:41;22.55;;;16.63;;
12519;SDS011;6325;49.540;8.364;2024-01-11T05:31:10;22.15;;;16.33;;
12519;SDS011;6325;49.540;8.364;2024-01-11T05:33:39;20.42;;;15.80;;
12519;SDS011;6325;49.540;8.364;2024-01-11T05:36:07;22.80;;;16.73;;
12519;SDS011;6325;49.540;8.364;2024-01-11T05:38:33;25.17;;;18.02;;
12519;SDS011;6325;49.540;8.364;2024-01-11T05:41:01;22.35;;;16.33;;
12519;SDS011;6325;49.540;8.364;2024-01-11T05:43:28;21.30;;;15.77;;
12519;SDS011;6325;49.540;8.364;2024-01-11T05:45:54;24.33;;;17.95;;
12519;SDS011;6325;49.540;8.364;2024-01-11T05:48:22;23.23;;;17.08;;
12519;SDS011;6325;49.540;8.364;2024-01-11T05:50:49;21.47;;;16.30;;
12519;SDS011;6325;49.540;8.364;2024-01-11T05:53:16;25.08;;;18.35;;
12519;SDS011;6325;49.540;8.364;2024-01-11T05:55:45;21.52;;;16.10;;
12519;SDS011;6325;49.540;8.364;2024-01-11T05:58:12;24.80;;;18.08;;
12519;SDS011;6325;49.540;8.364;2024-01-11T06:00:39;24.45;;;17.73;;
12519;SDS011;6325;49.540;8.364;2024-01-11T06:03:07;23.23;;;18.13;;
12519;SDS011;6325;49.540;8.364;2024-01-11T06:05:35;24.63;;;17.67;;
12519;SDS011;6325;49.540;8.364;2024-01-11T06:08:01;22.73;;;16.75;;
12519;SDS011;6325;49.540;8.364;2024-01-11T06:10:28;23.17;;;17.48;;
12519;SDS011;6325;49.540;8.364;2024-01-11T06:12:56;21.13;;;15.80;;
12519;SDS011;6325;49.540;8.364;2024-01-11T06:15:22;21.48;;;16.45;;
12519;SDS011;6325;49.540;8.364;2024-01-11T06:17:49;20.98;;;15.82;;
12519;SDS011;6325;49.540;8.364;2024-01-11T06:20:16;22.35;;;16.30;;
12519;SDS011;6325;49.540;8.364;2024-01-11T06:22:44;21.40;;;16.25;;
12519;SDS011;6325;49.540;8.364;2024-01-11T06:25:11;22.95;;;16.77;;
12519;SDS011;6325;49.540;8.364;2024-01-11T06:27:37;23.67;;;17.42;;
12519;SDS011;6325;49.540;8.364;2024-01-11T06:30:05;23.65;;;17.02;;
12519;SDS011;6325;49.540;8.364;2024-01-11T06:32:32;21.60;;;16.40;;
12519;SDS011;6325;49.540;8.364;2024-01-11T06:34:59;21.20;;;16.35;;
12519;SDS011;6325;49.540;8.364;2024-01-11T06:37:27;22.00;;;16.02;;
12519;SDS011;6325;49.540;8.364;2024-01-11T06:39:55;22.30;;;16.80;;
12519;SDS011;6325;49.540;8.364;2024-01-11T06:42:22;24.60;;;18.30;;
12519;SDS011;6325;49.540;8.364;2024-01-11T06:44:48;23.63;;;17.38;;
12519;SDS011;6325;49.540;8.364;2024-01-11T06:47:15;23.95;;;17.63;;
12519;SDS011;6325;49.540;8.364;2024-01-11T06:49:42;25.00;;;18.27;;
12519;SDS011;6325;49.540;8.364;2024-01-11T06:52:09;25.50;;;17.73;;
12519;SDS011;6325;49.540;8.364;2024-01-11T06:54:35;24.20;;;18.05;;
12519;SDS011;6325;49.540;8.364;2024-01-11T06:57:04;24.60;;;17.80;;
12519;SDS011;6325;49.540;8.364;2024-01-11T06:59:30;25.73;;;18.88;;
12519;SDS011;6325;49.540;8.364;2024-01-11T07:01:57;25.67;;;18.58;;
12519;SDS011;6325;49.540;8.364;2024-01-11T07:04:24;25.63;;;18.50;;
12519;SDS011;6325;49.540;8.364;2024-01-11T07:06:51;24.83;;;18.08;;
12519;SDS011;6325;49.540;8.364;2024-01-11T07:09:18;24.80;;;18.20;;
12519;SDS011;6325;49.540;8.364;2024-01-11T07:11:45;26.65;;;18.92;;
12519;SDS011;6325;49.540;8.364;2024-01-11T07:14:13;23.93;;;17.63;;
12519;SDS011;6325;49.540;8.364;2024-01-11T07:16:40;26.27;;;18.40;;
12519;SDS011;6325;49.540;8.364;2024-01-11T07:19:07;24.48;;;17.45;;
12519;SDS011;6325;49.540;8.364;2024-01-11T07:21:33;25.27;;;17.65;;
12519;SDS011;6325;49.540;8.364;2024-01-11T07:24:00;25.90;;;18.48;;
12519;SDS011;6325;49.540;8.364;2024-01-11T07:26:27;25.73;;;19.13;;
12519;SDS011;6325;49.540;8.364;2024-01-11T07:28:54;26.10;;;19.35;;
12519;SDS011;6325;49.540;8.364;2024-01-11T07:31:22;26.77;;;19.33;;
12519;SDS011;6325;49.540;8.364;2024-01-11T07:33:49;26.00;;;18.25;;
12519;SDS011;6325;49.540;8.364;2024-01-11T07:36:16;24.15;;;17.77;;
12519;SDS011;6325;49.540;8.364;2024-01-11T07:38:43;25.00;;;17.77;;
12519;SDS011;6325;49.540;8.364;2024-01-11T07:41:09;23.77;;;16.95;;
12519;SDS011;6325;49.540;8.364;2024-01-11T07:43:36;26.08;;;19.10;;
12519;SDS011;6325;49.540;8.364;2024-01-11T07:46:03;25.35;;;18.05;;
12519;SDS011;6325;49.540;8.364;2024-01-11T07:48:33;23.90;;;17.55;;
12519;SDS011;6325;49.540;8.364;2024-01-11T07:51:00;24.23;;;18.02;;
12519;SDS011;6325;49.540;8.364;2024-01-11T07:53:27;26.38;;;19.33;;
12519;SDS011;6325;49.540;8.364;2024-01-11T07:55:56;26.70;;;18.80;;
12519;SDS011;6325;49.540;8.364;2024-01-11T07:58:23;26.40;;;19.33;;
12519;SDS011;6325;49.540;8.364;2024-01-11T08:00:50;27.63;;;19.45;;
12519;SDS011;6325;49.540;8.364;2024-01-11T08:03:17;29.05;;;20.35;;
12519;SDS011;6325;49.540;8.364;2024-01-11T08:05:45;27.13;;;19.33;;
12519;SDS011;6325;49.540;8.364;2024-01-11T08:08:15;26.88;;;19.73;;
12519;SDS011;6325;49.540;8.364;2024-01-11T08:10:42;25.40;;;18.90;;
12519;SDS011;6325;49.540;8.364;2024-01-11T08:13:09;24.67;;;19.00;;
12519;SDS011;6325;49.540;8.364;2024-01-11T08:15:37;26.33;;;19.17;;
12519;SDS011;6325;49.540;8.364;2024-01-11T08:18:04;27.87;;;19.33;;
12519;SDS011;6325;49.540;8.364;2024-01-11T08:20:31;27.08;;;19.45;;
12519;SDS011;6325;49.540;8.364;2024-01-11T08:22:59;25.25;;;18.85;;
12519;SDS011;6325;49.540;8.364;2024-01-11T08:25:26;24.67;;;17.70;;
12519;SDS011;6325;49.540;8.364;2024-01-11T08:27:53;24.15;;;18.20;;
12519;SDS011;6325;49.540;8.364;2024-01-11T08:30:20;27.10;;;18.90;;
12519;SDS011;6325;49.540;8.364;2024-01-11T08:32:46;26.02;;;18.52;;
12519;SDS011;6325;49.540;8.364;2024-01-11T08:35:13;25.92;;;18.45;;
12519;SDS011;6325;49.540;8.364;2024-01-11T08:37:41;23.85;;;17.83;;
12519;SDS011;6325;49.540;8.364;2024-01-11T08:40:10;25.38;;;18.85;;
12519;SDS011;6325;49.540;8.364;2024-01-11T08:42:37;29.10;;;20.87;;
12519;SDS011;6325;49.540;8.364;2024-01-11T08:45:04;24.90;;;18.50;;
12519;SDS011;6325;49.540;8.364;2024-01-11T08:47:32;27.63;;;19.33;;
12519;SDS011;6325;49.540;8.364;2024-01-11T08:49:59;26.13;;;19.23;;
12519;SDS011;6325;49.540;8.364;2024-01-11T08:52:26;25.58;;;18.55;;
12519;SDS011;6325;49.540;8.364;2024-01-11T08:54:53;26.23;;;19.13;;
12519;SDS011;6325;49.540;8.364;2024-01-11T08:57:21;25.77;;;18.75;;
12519;SDS011;6325;49.540;8.364;2024-01-11T08:59:48;26.60;;;19.73;;
12519;SDS011;6325;49.540;8.364;2024-01-11T09:02:15;27.00;;;19.60;;
12519;SDS011;6325;49.540;8.364;2024-01-11T09:04:41;24.63;;;18.83;;
12519;SDS011;6325;49.540;8.364;2024-01-11T09:07:08;26.50;;;19.63;;
12519;SDS011;6325;49.540;8.364;2024-01-11T09:09:35;26.40;;;19.50;;
12519;SDS011;6325;49.540;8.364;2024-01-11T09:12:02;28.05;;;20.00;;
12519;SDS011;6325;49.540;8.364;2024-01-11T09:14:30;27.17;;;20.13;;
12519;SDS011;6325;49.540;8.364;2024-01-11T09:16:57;26.55;;;19.58;;
12519;SDS011;6325;49.540;8.364;2024-01-11T09:19:24;28.08;;;19.30;;
12519;SDS011;6325;49.540;8.364;2024-01-11T09:21:51;26.88;;;20.48;;
12519;SDS011;6325;49.540;8.364;2024-01-11T09:24:17;27.52;;;20.40;;
12519;SDS011;6325;49.540;8.364;2024-01-11T09:26:44;28.98;;;20.17;;
12519;SDS011;6325;49.540;8.364;2024-01-11T09:29:11;28.13;;;20.37;;
12519;SDS011;6325;49.540;8.364;2024-01-11T09:31:39;29.00;;;21.00;;
12519;SDS011;6325;49.540;8.364;2024-01-11T09:34:07;28.50;;;20.73;;
12519;SDS011;6325;49.540;8.364;2024-01-11T09:36:34;27.42;;;21.00;;
12519;SDS011;6325;49.540;8.364;2024-01-11T09:39:03;28.77;;;20.80;;
12519;SDS011;6325;49.540;8.364;2024-01-11T09:41:30;28.48;;;20.65;;
12519;SDS011;6325;49.540;8.364;2024-01-11T09:43:58;28.00;;;19.90;;
12519;SDS011;6325;49.540;8.364;2024-01-11T09:46:27;28.27;;;21.13;;
12519;SDS011;6325;49.540;8.364;2024-01-11T09:48:55;27.40;;;20.40;;
12519;SDS011;6325;49.540;8.364;2024-01-11T09:51:24;28.47;;;21.73;;
12519;SDS011;6325;49.540;8.364;2024-01-11T09:53:52;28.55;;;21.77;;
12519;SDS011;6325;49.540;8.364;2024-01-11T09:56:22;27.77;;;21.00;;
12519;SDS011;6325;49.540;8.364;2024-01-11T09:58:50;27.92;;;21.00;;
12519;SDS011;6325;49.540;8.364;2024-01-11T10:01:17;27.55;;;20.80;;
12519;SDS011;6325;49.540;8.364;2024-01-11T10:03:44;26.38;;;20.42;;
12519;SDS011;6325;49.540;8.364;2024-01-11T10:06:13;27.63;;;20.75;;
12519;SDS011;6325;49.540;8.364;2024-01-11T10:08:41;26.98;;;20.88;;
12519;SDS011;6325;49.540;8.364;2024-01-11T10:11:08;25.10;;;19.90;;
12519;SDS011;6325;49.540;8.364;2024-01-11T10:13:35;29.02;;;22.15;;
12519;SDS011;6325;49.540;8.364;2024-01-11T10:16:04;27.38;;;19.98;;
12519;SDS011;6325;49.540;8.364;2024-01-11T10:18:32;27.98;;;20.73;;
12519;SDS011;6325;49.540;8.364;2024-01-11T10:20:59;25.88;;;19.50;;
12519;SDS011;6325;49.540;8.364;2024-01-11T10:23:29;25.60;;;19.48;;
12519;SDS011;6325;49.540;8.364;2024-01-11T10:28:23;30.88;;;23.10;;
12519;SDS011;6325;49.540;8.364;2024-01-11T10:30:51;27.90;;;21.05;;
12519;SDS011;6325;49.540;8.364;2024-01-11T10:33:19;26.25;;;19.83;;
12519;SDS011;6325;49.540;8.364;2024-01-11T10:35:46;26.17;;;20.60;;
12519;SDS011;6325;49.540;8.364;2024-01-11T10:38:15;24.58;;;19.38;;
12519;SDS011;6325;49.540;8.364;2024-01-11T10:40:43;25.70;;;20.40;;
12519;SDS011;6325;49.540;8.364;2024-01-11T10:43:11;26.07;;;19.93;;
12519;SDS011;6325;49.540;8.364;2024-01-11T10:45:40;25.10;;;20.02;;
12519;SDS011;6325;49.540;8.364;2024-01-11T10:48:11;25.90;;;20.00;;
12519;SDS011;6325;49.540;8.364;2024-01-11T10:50:41;26.10;;;20.17;;
12519;SDS011;6325;49.540;8.364;2024-01-11T10:53:12;29.13;;;21.52;;
12519;SDS011;6325;49.540;8.364;2024-01-11T10:55:53;26.88;;;20.55;;
12519;SDS011;6325;49.540;8.364;2024-01-11T10:58:21;26.27;;;20.10;;
12519;SDS011;6325;49.540;8.364;2024-01-11T11:00:49;27.98;;;21.02;;
12519;SDS011;6325;49.540;8.364;2024-01-11T11:03:17;29.00;;;22.15;;
12519;SDS011;6325;49.540;8.364;2024-01-11T11:05:45;28.23;;;20.42;;
12519;SDS011;6325;49.540;8.364;2024-01-11T11:08:15;26.23;;;20.50;;
12519;SDS011;6325;49.540;8.364;2024-01-11T11:10:43;24.77;;;19.23;;
12519;SDS011;6325;49.540;8.364;2024-01-11T11:13:14;24.13;;;19.50;;
12519;SDS011;6325;49.540;8.364;2024-01-11T11:15:41;24.50;;;19.83;;
12519;SDS011;6325;49.540;8.364;2024-01-11T11:18:11;27.40;;;20.63;;
12519;SDS011;6325;49.540;8.364;2024-01-11T11:20:39;26.42;;;20.33;;
12519;SDS011;6325;49.540;8.364;2024-01-11T11:23:07;26.77;;;20.10;;
12519;SDS011;6325;49.540;8.364;2024-01-11T11:25:35;27.13;;;20.50;;
12519;SDS011;6325;49.540;8.364;2024-01-11T11:28:04;26.85;;;19.75;;
12519;SDS011;6325;49.540;8.364;2024-01-11T11:30:32;27.50;;;20.95;;
12519;SDS011;6325;49.540;8.364;2024-01-11T11:33:15;25.42;;;18.95;;
12519;SDS011;6325;49.540;8.364;2024-01-11T11:35:43;25.20;;;19.27;;
12519;SDS011;6325;49.540;8.364;2024-01-11T11:38:16;25.33;;;19.80;;
12519;SDS011;6325;49.540;8.364;2024-01-11T11:40:43;26.58;;;20.67;;
12519;SDS011;6325;49.540;8.364;2024-01-11T11:43:15;25.88;;;20.88;;
12519;SDS011;6325;49.540;8.364;2024-01-11T11:45:44;27.70;;;21.52;;
12519;SDS011;6325;49.540;8.364;2024-01-11T11:51:14;22.87;;;18.67;;
12519;SDS011;6325;49.540;8.364;2024-01-11T11:53:42;24.85;;;19.35;;
12519;SDS011;6325;49.540;8.364;2024-01-11T11:56:09;23.30;;;18.92;;
12519;SDS011;6325;49.540;8.364;2024-01-11T11:58:37;23.02;;;18.42;;
12519;SDS011;6325;49.540;8.364;2024-01-11T12:01:06;26.05;;;20.13;;
12519;SDS011;6325;49.540;8.364;2024-01-11T12:03:34;22.83;;;18.38;;
12519;SDS011;6325;49.540;8.364;2024-01-11T12:06:02;24.90;;;19.05;;
12519;SDS011;6325;49.540;8.364;2024-01-11T12:08:30;24.95;;;19.23;;
12519;SDS011;6325;49.540;8.364;2024-01-11T12:10:57;25.35;;;19.67;;
12519;SDS011;6325;49.540;8.364;2024-01-11T12:13:24;22.60;;;18.73;;
12519;SDS011;6325;49.540;8.364;2024-01-11T12:15:52;26.60;;;19.90;;
12519;SDS011;6325;49.540;8.364;2024-01-11T12:18:20;24.95;;;19.60;;
12519;SDS011;6325;49.540;8.364;2024-01-11T12:20:47;24.35;;;19.15;;
12519;SDS011;6325;49.540;8.364;2024-01-11T12:23:13;23.70;;;18.85;;
12519;SDS011;6325;49.540;8.364;2024-01-11T12:25:41;22.83;;;18.20;;
12519;SDS011;6325;49.540;8.364;2024-01-11T12:28:08;22.33;;;18.63;;
12519;SDS011;6325;49.540;8.364;2024-01-11T12:30:35;23.30;;;18.52;;
12519;SDS011;6325;49.540;8.364;2024-01-11T12:33:02;22.92;;;18.92;;
12519;SDS011;6325;49.540;8.364;2024-01-11T12:35:31;23.98;;;18.90;;
12519;SDS011;6325;49.540;8.364;2024-01-11T12:37:59;24.80;;;19.58;;
12519;SDS011;6325;49.540;8.364;2024-01-11T12:40:27;24.43;;;19.07;;
12519;SDS011;6325;49.540;8.364;2024-01-11T12:42:55;23.13;;;18.77;;
12519;SDS011;6325;49.540;8.364;2024-01-11T12:45:23;22.73;;;18.25;;
12519;SDS011;6325;49.540;8.364;2024-01-11T12:47:51;21.80;;;18.00;;
12519;SDS011;6325;49.540;8.364;2024-01-11T12:50:18;21.65;;;18.33;;
12519;SDS011;6325;49.540;8.364;2024-01-11T12:52:47;21.55;;;18.02;;
12519;SDS011;6325;49.540;8.364;2024-01-11T12:55:17;22.65;;;18.25;;
12519;SDS011;6325;49.540;8.364;2024-01-11T12:57:45;22.50;;;18.10;;
12519;SDS011;6325;49.540;8.364;2024-01-11T13:00:12;25.05;;;19.23;;
12519;SDS011;6325;49.540;8.364;2024-01-11T13:02:41;22.88;;;18.10;;
12519;SDS011;6325;49.540;8.364;2024-01-11T13:05:09;23.27;;;18.75;;
12519;SDS011;6325;49.540;8.364;2024-01-11T13:07:36;24.50;;;19.45;;
12519;SDS011;6325;49.540;8.364;2024-01-11T13:10:05;21.80;;;18.30;;
12519;SDS011;6325;49.540;8.364;2024-01-11T13:12:32;24.33;;;18.83;;
12519;SDS011;6325;49.540;8.364;2024-01-11T13:14:59;21.00;;;17.85;;
12519;SDS011;6325;49.540;8.364;2024-01-11T13:17:26;22.13;;;17.90;;
12519;SDS011;6325;49.540;8.364;2024-01-11T13:19:53;22.40;;;18.05;;
12519;SDS011;6325;49.540;8.364;2024-01-11T13:22:21;21.25;;;17.17;;
12519;SDS011;6325;49.540;8.364;2024-01-11T13:24:48;19.50;;;16.73;;
12519;SDS011;6325;49.540;8.364;2024-01-11T13:27:16;21.92;;;17.83;;
12519;SDS011;6325;49.540;8.364;2024-01-11T13:29:43;21.92;;;17.63;;
12519;SDS011;6325;49.540;8.364;2024-01-11T13:32:10;23.20;;;18.02;;
12519;SDS011;6325;49.540;8.364;2024-01-11T13:34:36;20.85;;;16.42;;
12519;SDS011;6325;49.540;8.364;2024-01-11T13:37:03;22.55;;;18.33;;
12519;SDS011;6325;49.540;8.364;2024-01-11T13:39:30;19.77;;;16.40;;
12519;SDS011;6325;49.540;8.364;2024-01-11T13:41:59;21.70;;;18.20;;
12519;SDS011;6325;49.540;8.364;2024-01-11T13:44:29;22.60;;;19.07;;
12519;SDS011;6325;49.540;8.364;2024-01-11T13:46:56;22.00;;;18.30;;
12519;SDS011;6325;49.540;8.364;2024-01-11T13:49:23;23.40;;;19.80;;
12519;SDS011;6325;49.540;8.364;2024-01-11T13:51:50;21.60;;;18.30;;
12519;SDS011;6325;49.540;8.364;2024-01-11T13:54:16;23.53;;;18.23;;
12519;SDS011;6325;49.540;8.364;2024-01-11T13:56:43;21.08;;;16.67;;
12519;SDS011;6325;49.540;8.364;2024-01-11T13:59:10;20.83;;;16.92;;
12519;SDS011;6325;49.540;8.364;2024-01-11T14:01:38;20.52;;;16.65;;
12519;SDS011;6325;49.540;8.364;2024-01-11T14:04:05;17.55;;;14.85;;
12519;SDS011;6325;49.540;8.364;2024-01-11T14:06:32;20.08;;;16.45;;
12519;SDS011;6325;49.540;8.364;2024-01-11T14:08:58;20.38;;;16.40;;
12519;SDS011;6325;49.540;8.364;2024-01-11T14:11:25;19.50;;;16.05;;
12519;SDS011;6325;49.540;8.364;2024-01-11T14:13:52;21.30;;;16.63;;
12519;SDS011;6325;49.540;8.364;2024-01-11T14:16:19;19.33;;;15.80;;
12519;SDS011;6325;49.540;8.364;2024-01-11T14:18:47;21.42;;;16.95;;
12519;SDS011;6325;49.540;8.364;2024-01-11T14:21:14;20.77;;;16.70;;
12519;SDS011;6325;49.540;8.364;2024-01-11T14:23:41;19.48;;;16.13;;
12519;SDS011;6325;49.540;8.364;2024-01-11T14:26:08;20.25;;;15.63;;
12519;SDS011;6325;49.540;8.364;2024-01-11T14:28:35;18.33;;;15.07;;
12519;SDS011;6325;49.540;8.364;2024-01-11T14:31:07;18.48;;;14.65;;
12519;SDS011;6325;49.540;8.364;2024-01-11T14:33:35;18.87;;;14.83;;
12519;SDS011;6325;49.540;8.364;2024-01-11T14:36:04;17.98;;;14.20;;
12519;SDS011;6325;49.540;8.364;2024-01-11T14:38:31;17.50;;;14.27;;
12519;SDS011;6325;49.540;8.364;2024-01-11T14:40:58;18.75;;;14.90;;